Time;durP1;ratioP1;P1;durP2;ratioP2;P2;SDS_P1;SDS_P2;PMS_P1;PMS_P2;Temp;Humidity;BMP_temperature;BMP_pressure;BME280_temperature;BME280_humidity;BME280_pressure;Samples;Min_cycle;Max_cycle;Signal;HPM_P1;HPM_P2
2022/05/20 00:00:44;;;;;;;0.10;0.10;;;;;;;;;;5094585;28;20480;-81
2022/05/20 00:03:10;;;;;;;0.10;0.10;;;;;;;;;;5096991;28;20032;-80
2022/05/20 00:05:36;;;;;;;0.10;0.10;;;;;;;;;;5112678;28;20051;-80
2022/05/20 00:08:02;;;;;;;0.10;0.10;;;;;;;;;;5114659;28;20081;-80
2022/05/20 00:10:29;;;;;;;0.10;0.10;;;;;;;;;;5113988;28;20043;-81
2022/05/20 00:12:56;;;;;;;0.10;0.10;;;;;;;;;;5112778;28;20433;-80
2022/05/20 00:15:24;;;;;;;0.10;0.10;;;;;;;;;;5113278;28;20072;-82
2022/05/20 00:17:50;;;;;;;0.10;0.10;;;;;;;;;;5114374;28;20023;-80
2022/05/20 00:20:18;;;;;;;0.10;0.10;;;;;;;;;;5114727;28;20077;-80
2022/05/20 00:22:44;;;;;;;0.10;0.10;;;;;;;;;;5113230;28;20107;-79
2022/05/20 00:27:55;;;;;;;0.10;0.10;;;;;;;;;;5094908;28;20453;-80
2022/05/20 00:30:21;;;;;;;0.10;0.10;;;;;;;;;;5094132;28;20016;-80
2022/05/20 00:32:47;;;;;;;0.10;0.10;;;;;;;;;;5093925;28;20035;-80
2022/05/20 00:35:14;;;;;;;0.10;0.10;;;;;;;;;;5094199;28;20460;-80
2022/05/20 00:37:40;;;;;;;0.10;0.10;;;;;;;;;;5094990;28;20480;-79
2022/05/20 00:40:07;;;;;;;0.10;0.10;;;;;;;;;;5114429;28;20036;-79
2022/05/20 00:42:34;;;;;;;0.10;0.10;;;;;;;;;;5114145;28;20023;-80
2022/05/20 00:45:00;;;;;;;0.10;0.10;;;;;;;;;;5104585;28;20408;-80
2022/05/20 00:47:26;;;;;;;0.10;0.10;;;;;;;;;;5092960;28;20091;-81
2022/05/20 00:49:54;;;;;;;0.10;0.10;;;;;;;;;;5098381;28;20180;-81
2022/05/20 00:52:21;;;;;;;0.10;0.10;;;;;;;;;;5093447;28;20134;-82
2022/05/20 00:54:49;;;;;;;0.10;0.10;;;;;;;;;;5092982;28;20032;-81
2022/05/20 00:57:20;;;;;;;0.10;0.10;;;;;;;;;;5092446;28;20028;-82
2022/05/20 00:59:48;;;;;;;0.10;0.10;;;;;;;;;;5093486;28;20129;-82
2022/05/20 01:02:20;;;;;;;0.10;0.10;;;;;;;;;;5109714;28;20023;-82
2022/05/20 01:04:46;;;;;;;0.10;0.10;;;;;;;;;;5113258;28;20027;-83
2022/05/20 01:07:13;;;;;;;0.10;0.10;;;;;;;;;;5113885;28;20510;-81
2022/05/20 01:09:39;;;;;;;0.10;0.10;;;;;;;;;;5113679;28;20028;-81
2022/05/20 01:12:06;;;;;;;0.10;0.10;;;;;;;;;;5111804;28;20039;-83
2022/05/20 01:14:32;;;;;;;0.03;0.03;;;;;;;;;;5111336;28;20479;-80
2022/05/20 01:16:58;;;;;;;0.10;0.10;;;;;;;;;;5112596;28;20024;-81
2022/05/20 01:19:57;;;;;;;0.10;0.10;;;;;;;;;;5099731;28;20038;-81
2022/05/20 01:22:41;;;;;;;0.03;0.03;;;;;;;;;;5058160;28;20119;-83
2022/05/20 01:25:08;;;;;;;0.00;0.00;;;;;;;;;;5092921;28;20507;-79
2022/05/20 01:27:36;;;;;;;0.10;0.10;;;;;;;;;;5092929;28;20029;-82
2022/05/20 01:30:03;;;;;;;0.10;0.10;;;;;;;;;;5093070;28;20043;-82
2022/05/20 01:32:29;;;;;;;0.10;0.10;;;;;;;;;;5095653;28;20038;-77
2022/05/20 01:34:55;;;;;;;0.10;0.10;;;;;;;;;;5113266;28;20106;-82
2022/05/20 01:37:21;;;;;;;0.10;0.10;;;;;;;;;;5113384;28;20071;-81
2022/05/20 01:39:47;;;;;;;0.10;0.10;;;;;;;;;;5113005;28;20047;-80
2022/05/20 01:42:36;;;;;;;0.10;0.10;;;;;;;;;;5112869;28;20063;-80
2022/05/20 01:45:07;;;;;;;0.10;0.10;;;;;;;;;;5095827;28;20059;-81
2022/05/20 01:47:38;;;;;;;0.10;0.10;;;;;;;;;;5094321;28;20392;-82
2022/05/20 01:50:07;;;;;;;0.10;0.10;;;;;;;;;;5102640;28;20032;-82
2022/05/20 01:52:40;;;;;;;0.00;0.00;;;;;;;;;;5092342;28;20056;-81
2022/05/20 01:55:06;;;;;;;0.10;0.10;;;;;;;;;;5092525;28;20032;-81
2022/05/20 01:57:38;;;;;;;0.10;0.10;;;;;;;;;;5092367;28;20035;-81
2022/05/20 02:00:10;;;;;;;0.10;0.10;;;;;;;;;;5108054;28;20118;-82
2022/05/20 02:02:39;;;;;;;0.10;0.10;;;;;;;;;;5112569;28;20036;-82
2022/05/20 02:05:20;;;;;;;0.15;0.15;;;;;;;;;;5111507;28;20028;-81
2022/05/20 02:07:48;;;;;;;0.10;0.10;;;;;;;;;;5112416;28;20494;-82
2022/05/20 02:10:32;;;;;;;0.10;0.10;;;;;;;;;;5110577;28;20027;-81
2022/05/20 02:13:01;;;;;;;0.10;0.10;;;;;;;;;;5072409;28;20017;-80
2022/05/20 02:15:39;;;;;;;0.10;0.10;;;;;;;;;;5079666;28;20020;-81
2022/05/20 02:18:06;;;;;;;0.10;0.10;;;;;;;;;;5092060;28;20557;-81
2022/05/20 02:20:32;;;;;;;0.10;0.10;;;;;;;;;;5091668;28;20476;-79
2022/05/20 02:23:01;;;;;;;0.10;0.10;;;;;;;;;;5092259;28;20028;-81
2022/05/20 02:25:30;;;;;;;0.10;0.10;;;;;;;;;;5092325;28;20032;-80
2022/05/20 02:27:58;;;;;;;0.10;0.10;;;;;;;;;;5092090;28;20079;-83
2022/05/20 02:30:27;;;;;;;0.10;0.10;;;;;;;;;;5090978;28;20024;-81
2022/05/20 02:32:56;;;;;;;0.10;0.10;;;;;;;;;;5090358;28;20107;-84
2022/05/20 02:35:23;;;;;;;0.10;0.10;;;;;;;;;;5091518;28;20403;-83
2022/05/20 02:37:49;;;;;;;0.10;0.10;;;;;;;;;;5090414;28;20394;-83
2022/05/20 02:40:16;;;;;;;0.10;0.10;;;;;;;;;;5090354;28;20485;-83
2022/05/20 02:42:42;;;;;;;0.10;0.10;;;;;;;;;;5091511;28;20042;-83
2022/05/20 02:45:09;;;;;;;0.00;0.00;;;;;;;;;;5091501;28;20032;-83
2022/05/20 02:47:35;;;;;;;0.10;0.10;;;;;;;;;;5091494;28;20026;-83
2022/05/20 02:50:02;;;;;;;0.10;0.10;;;;;;;;;;5090412;28;20023;-83
2022/05/20 02:52:28;;;;;;;0.10;0.10;;;;;;;;;;5091850;28;20028;-81
2022/05/20 02:54:54;;;;;;;0.10;0.10;;;;;;;;;;5091891;28;20020;-82
2022/05/20 02:57:20;;;;;;;0.10;0.10;;;;;;;;;;5091339;28;20077;-82
2022/05/20 03:05:16;;;;;;;0.10;0.10;;;;;;;;;;5091377;28;20519;-81
2022/05/20 03:07:42;;;;;;;0.10;0.10;;;;;;;;;;5089670;28;20028;-81
2022/05/20 03:10:09;;;;;;;0.10;0.10;;;;;;;;;;5091102;28;20039;-81
2022/05/20 03:12:35;;;;;;;0.10;0.10;;;;;;;;;;5090924;28;20032;-81
2022/05/20 03:15:03;;;;;;;0.08;0.08;;;;;;;;;;5090181;28;20063;-82
2022/05/20 03:17:29;;;;;;;0.10;0.10;;;;;;;;;;5091196;28;20077;-78
2022/05/20 03:19:55;;;;;;;0.10;0.10;;;;;;;;;;5091655;28;20117;-83
2022/05/20 03:22:21;;;;;;;0.10;0.10;;;;;;;;;;5091272;28;20492;-83
2022/05/20 03:24:47;;;;;;;0.10;0.10;;;;;;;;;;5091082;28;20499;-83
2022/05/20 03:27:16;;;;;;;0.10;0.10;;;;;;;;;;5091274;28;20016;-83
2022/05/20 03:29:42;;;;;;;0.10;0.10;;;;;;;;;;5090962;28;20024;-81
2022/05/20 03:32:09;;;;;;;0.10;0.10;;;;;;;;;;5091138;28;20020;-83
2022/05/20 03:34:35;;;;;;;0.10;0.10;;;;;;;;;;5090772;28;20549;-82
2022/05/20 03:37:01;;;;;;;0.10;0.10;;;;;;;;;;5090946;28;20020;-82
2022/05/20 03:39:27;;;;;;;0.10;0.10;;;;;;;;;;5091507;28;20028;-82
2022/05/20 03:41:53;;;;;;;0.00;0.00;;;;;;;;;;5090775;28;20053;-81
2022/05/20 03:44:20;;;;;;;0.10;0.10;;;;;;;;;;5089722;28;20045;-82
2022/05/20 03:46:47;;;;;;;0.10;0.10;;;;;;;;;;5090776;28;20020;-80
2022/05/20 03:49:14;;;;;;;0.10;0.10;;;;;;;;;;5090998;28;20099;-81
2022/05/20 03:51:41;;;;;;;0.10;0.10;;;;;;;;;;5090653;28;20107;-82
2022/05/20 03:54:07;;;;;;;0.10;0.10;;;;;;;;;;5090800;28;20023;-82
2022/05/20 03:56:33;;;;;;;0.10;0.10;;;;;;;;;;5090418;28;20480;-81
2022/05/20 03:58:59;;;;;;;0.10;0.10;;;;;;;;;;5090873;28;20095;-80
2022/05/20 04:04:10;;;;;;;0.10;0.10;;;;;;;;;;5090455;28;20548;-82
2022/05/20 04:06:37;;;;;;;0.10;0.10;;;;;;;;;;5090424;28;20024;-82
2022/05/20 04:09:05;;;;;;;0.10;0.10;;;;;;;;;;5090799;28;20441;-81
2022/05/20 04:11:32;;;;;;;0.10;0.10;;;;;;;;;;5090465;28;20091;-81
2022/05/20 04:13:58;;;;;;;0.10;0.10;;;;;;;;;;5091048;28;20024;-82
2022/05/20 04:16:24;;;;;;;0.08;0.08;;;;;;;;;;5090890;28;20027;-82
2022/05/20 04:18:50;;;;;;;0.10;0.10;;;;;;;;;;5090436;28;20086;-82
2022/05/20 04:23:53;;;;;;;0.10;0.10;;;;;;;;;;5071169;23;20416;-89
2022/05/20 04:26:19;;;;;;;0.10;0.10;;;;;;;;;;5014805;28;20087;-89
2022/05/20 04:28:45;;;;;;;0.10;0.10;;;;;;;;;;5014614;28;20392;-90
2022/05/20 04:31:12;;;;;;;0.10;0.10;;;;;;;;;;5015042;28;20028;-90
2022/05/20 04:33:38;;;;;;;0.10;0.10;;;;;;;;;;5016260;28;20058;-90
2022/05/20 04:36:05;;;;;;;0.10;0.10;;;;;;;;;;5014553;28;20404;-89
2022/05/20 04:38:31;;;;;;;0.10;0.10;;;;;;;;;;5014385;28;20489;-87
2022/05/20 04:49:12;;;;;;;0.10;0.10;;;;;;;;;;5015837;28;20093;-86
2022/05/20 04:51:38;;;;;;;0.10;0.10;;;;;;;;;;5015796;28;20026;-88
2022/05/20 04:56:50;;;;;;;0.10;0.10;;;;;;;;;;5015593;28;20057;-89
2022/05/20 04:59:17;;;;;;;0.10;0.10;;;;;;;;;;5015059;28;20045;-89
2022/05/20 05:01:43;;;;;;;0.10;0.10;;;;;;;;;;5014677;28;20041;-89
2022/05/20 05:04:10;;;;;;;0.10;0.10;;;;;;;;;;5014871;28;20037;-86
2022/05/20 05:06:36;;;;;;;0.10;0.10;;;;;;;;;;5014700;28;20026;-86
2022/05/20 05:09:02;;;;;;;0.10;0.10;;;;;;;;;;5014543;28;20034;-85
2022/05/20 05:11:28;;;;;;;0.10;0.10;;;;;;;;;;5011924;28;20030;-85
2022/05/20 05:13:54;;;;;;;0.10;0.10;;;;;;;;;;5014069;28;20022;-84
2022/05/20 05:16:20;;;;;;;0.10;0.10;;;;;;;;;;5012377;28;20026;-84
2022/05/20 05:18:46;;;;;;;0.10;0.10;;;;;;;;;;5013951;28;20029;-83
2022/05/20 05:21:16;;;;;;;0.08;0.08;;;;;;;;;;5013999;28;20025;-84
2022/05/20 05:23:42;;;;;;;0.10;0.10;;;;;;;;;;5012401;28;20041;-84
2022/05/20 05:26:08;;;;;;;0.10;0.10;;;;;;;;;;5014769;28;20013;-87
2022/05/20 05:28:34;;;;;;;0.00;0.00;;;;;;;;;;5014307;28;20026;-86
2022/05/20 05:31:00;;;;;;;0.10;0.10;;;;;;;;;;5013320;28;20022;-82
2022/05/20 05:33:26;;;;;;;0.10;0.10;;;;;;;;;;5013773;28;20108;-83
2022/05/20 05:35:52;;;;;;;0.10;0.10;;;;;;;;;;5013401;28;20481;-85
2022/05/20 05:38:19;;;;;;;0.10;0.10;;;;;;;;;;5013694;28;20507;-82
2022/05/20 05:40:45;;;;;;;0.10;0.10;;;;;;;;;;5013465;28;20021;-82
2022/05/20 05:43:11;;;;;;;0.00;0.00;;;;;;;;;;5012178;28;20045;-82
2022/05/20 05:45:38;;;;;;;0.10;0.10;;;;;;;;;;5011804;28;20485;-83
2022/05/20 05:48:05;;;;;;;0.10;0.10;;;;;;;;;;5013086;28;20025;-83
2022/05/20 05:50:32;;;;;;;0.10;0.10;;;;;;;;;;5009538;28;20022;-84
2022/05/20 05:53:00;;;;;;;0.10;0.10;;;;;;;;;;5013452;28;20022;-83
2022/05/20 05:55:26;;;;;;;0.10;0.10;;;;;;;;;;5013275;28;20060;-86
2022/05/20 05:57:52;;;;;;;0.10;0.10;;;;;;;;;;5013877;28;20397;-86
2022/05/20 06:00:19;;;;;;;0.10;0.10;;;;;;;;;;5013879;28;20026;-85
2022/05/20 06:02:45;;;;;;;0.10;0.10;;;;;;;;;;5012675;28;20034;-83
2022/05/20 06:05:11;;;;;;;0.10;0.10;;;;;;;;;;5014220;28;20037;-84
2022/05/20 06:07:37;;;;;;;0.10;0.10;;;;;;;;;;5012453;28;20025;-83
2022/05/20 06:10:03;;;;;;;0.10;0.10;;;;;;;;;;5017769;28;20068;-82
2022/05/20 06:12:31;;;;;;;0.10;0.10;;;;;;;;;;5031321;28;20026;-84
2022/05/20 06:14:57;;;;;;;0.03;0.03;;;;;;;;;;5017528;28;20054;-84
2022/05/20 06:17:23;;;;;;;0.10;0.10;;;;;;;;;;5013567;28;20026;-85
2022/05/20 06:19:49;;;;;;;0.10;0.10;;;;;;;;;;5013267;28;20026;-84
2022/05/20 06:22:15;;;;;;;0.10;0.10;;;;;;;;;;5011803;28;20161;-83
2022/05/20 06:24:41;;;;;;;0.10;0.10;;;;;;;;;;5012080;28;20049;-83
2022/05/20 06:27:09;;;;;;;0.00;0.00;;;;;;;;;;5013056;28;20057;-84
2022/05/20 06:29:35;;;;;;;0.10;0.10;;;;;;;;;;5011876;28;20026;-84
2022/05/20 06:32:01;;;;;;;0.10;0.10;;;;;;;;;;5011756;28;20026;-84
2022/05/20 06:39:48;;;;;;;0.10;0.10;;;;;;;;;;5012902;28;20104;-85
2022/05/20 06:39:58;;;;;;;0.10;0.10;;;;;;;;;;5012718;28;20032;-85
2022/05/20 06:42:24;;;;;;;0.10;0.10;;;;;;;;;;5013244;28;20054;-90
2022/05/20 06:44:50;;;;;;;0.10;0.10;;;;;;;;;;5012212;28;20038;-87
2022/05/20 06:47:16;;;;;;;0.10;0.10;;;;;;;;;;4996431;28;20023;-87
2022/05/20 06:49:42;;;;;;;0.10;0.10;;;;;;;;;;4992520;28;20034;-88
2022/05/20 06:52:08;;;;;;;0.10;0.10;;;;;;;;;;4993385;28;20026;-85
2022/05/20 06:54:34;;;;;;;0.10;0.10;;;;;;;;;;4993533;28;20030;-82
2022/05/20 06:57:00;;;;;;;0.10;0.10;;;;;;;;;;4993313;28;20026;-84
2022/05/20 06:59:26;;;;;;;0.10;0.10;;;;;;;;;;4993473;28;20030;-87
2022/05/20 07:01:54;;;;;;;0.10;0.10;;;;;;;;;;4992045;28;20058;-82
2022/05/20 07:04:20;;;;;;;0.10;0.10;;;;;;;;;;4993188;28;20045;-85
2022/05/20 07:06:46;;;;;;;0.10;0.10;;;;;;;;;;4993525;28;20398;-81
2022/05/20 07:09:12;;;;;;;0.03;0.03;;;;;;;;;;4993745;28;20088;-88
2022/05/20 07:11:38;;;;;;;0.10;0.10;;;;;;;;;;5026160;28;20436;-89
2022/05/20 07:14:04;;;;;;;0.10;0.10;;;;;;;;;;5032811;28;20047;-90
2022/05/20 07:16:30;;;;;;;0.10;0.10;;;;;;;;;;5032688;28;20056;-90
2022/05/20 07:18:57;;;;;;;0.10;0.10;;;;;;;;;;5032825;28;20473;-87
2022/05/20 07:21:23;;;;;;;0.10;0.10;;;;;;;;;;5032546;28;20028;-89
2022/05/20 07:23:49;;;;;;;0.10;0.10;;;;;;;;;;5032346;28;20033;-86
2022/05/20 07:26:16;;;;;;;0.00;0.00;;;;;;;;;;5032879;28;20026;-89
2022/05/20 07:28:42;;;;;;;0.10;0.10;;;;;;;;;;5033550;28;20032;-89
2022/05/20 07:31:08;;;;;;;0.10;0.10;;;;;;;;;;5035580;28;20148;-95
2022/05/20 07:33:35;;;;;;;0.10;0.10;;;;;;;;;;5037264;28;20068;-87
2022/05/20 07:36:01;;;;;;;0.10;0.10;;;;;;;;;;5032100;28;20029;-85
2022/05/20 07:38:27;;;;;;;0.10;0.10;;;;;;;;;;5031199;28;20374;-91
2022/05/20 07:40:57;;;;;;;0.05;0.05;;;;;;;;;;5032417;28;20036;-89
2022/05/20 07:43:24;;;;;;;0.10;0.10;;;;;;;;;;5031047;28;20084;-91
2022/05/20 07:45:51;;;;;;;0.10;0.10;;;;;;;;;;5032558;28;20022;-91
2022/05/20 07:48:18;;;;;;;0.10;0.10;;;;;;;;;;5032663;28;20026;-89
2022/05/20 07:50:45;;;;;;;0.10;0.10;;;;;;;;;;5032770;28;20021;-90
2022/05/20 07:53:20;;;;;;;0.10;0.10;;;;;;;;;;5031476;28;20049;-94
2022/05/20 07:55:49;;;;;;;0.10;0.10;;;;;;;;;;5031327;28;20465;-93
2022/05/20 07:58:18;;;;;;;0.10;0.10;;;;;;;;;;5033881;28;20049;-94
2022/05/20 08:00:44;;;;;;;0.10;0.10;;;;;;;;;;5036569;28;20036;-93
2022/05/20 08:03:11;;;;;;;0.10;0.10;;;;;;;;;;5035880;28;20068;-90
2022/05/20 08:05:37;;;;;;;0.10;0.10;;;;;;;;;;5034247;28;20121;-88
2022/05/20 08:08:05;;;;;;;0.10;0.10;;;;;;;;;;5014894;28;20026;-90
2022/05/20 08:10:33;;;;;;;0.10;0.10;;;;;;;;;;5015401;28;20543;-85
2022/05/20 08:12:59;;;;;;;0.10;0.10;;;;;;;;;;5015624;28;20112;-92
2022/05/20 08:15:26;;;;;;;0.10;0.10;;;;;;;;;;5015308;28;20140;-90
2022/05/20 08:17:52;;;;;;;0.10;0.10;;;;;;;;;;5016154;28;20030;-90
2022/05/20 08:20:25;;;;;;;0.10;0.10;;;;;;;;;;5017306;28;20026;-90
2022/05/20 08:22:51;;;;;;;0.00;0.00;;;;;;;;;;5016308;28;20033;-91
2022/05/20 08:25:17;;;;;;;0.10;0.10;;;;;;;;;;5015940;28;20033;-84
2022/05/20 08:27:43;;;;;;;0.10;0.10;;;;;;;;;;5014466;28;20034;-89
2022/05/20 08:30:14;;;;;;;0.10;0.10;;;;;;;;;;5014520;28;20022;-94
2022/05/20 08:32:40;;;;;;;0.10;0.10;;;;;;;;;;5015857;28;20088;-85
2022/05/20 08:35:07;;;;;;;0.10;0.10;;;;;;;;;;5015971;28;20026;-87
2022/05/20 08:37:33;;;;;;;0.10;0.10;;;;;;;;;;5015621;28;20029;-93
2022/05/20 08:40:00;;;;;;;0.10;0.10;;;;;;;;;;5015528;28;20500;-90
2022/05/20 08:42:29;;;;;;;0.10;0.10;;;;;;;;;;5015546;28;20460;-91
2022/05/20 08:44:56;;;;;;;0.10;0.10;;;;;;;;;;5015580;28;20061;-91
2022/05/20 08:47:22;;;;;;;0.00;0.00;;;;;;;;;;5014647;28;20018;-92
2022/05/20 08:49:48;;;;;;;0.10;0.10;;;;;;;;;;5015729;28;20064;-92
2022/05/20 08:52:14;;;;;;;0.00;0.00;;;;;;;;;;5017322;28;20025;-89
2022/05/20 08:54:44;;;;;;;0.10;0.10;;;;;;;;;;5025163;28;20022;-89
2022/05/20 08:57:21;;;;;;;0.10;0.10;;;;;;;;;;5015621;28;20100;-83
2022/05/20 08:59:47;;;;;;;0.10;0.10;;;;;;;;;;5017186;28;20455;-80
2022/05/20 09:02:13;;;;;;;0.10;0.10;;;;;;;;;;5015702;28;20030;-89
2022/05/20 09:04:39;;;;;;;0.00;0.00;;;;;;;;;;5007541;28;20050;-79
2022/05/20 09:07:05;;;;;;;0.10;0.10;;;;;;;;;;4995644;28;20031;-86
2022/05/20 09:09:50;;;;;;;0.10;0.10;;;;;;;;;;4994890;28;20034;-90
2022/05/20 09:12:32;;;;;;;0.10;0.10;;;;;;;;;;4995621;28;20497;-89
2022/05/20 09:17:46;;;;;;;0.10;0.10;;;;;;;;;;4995327;28;20095;-88
2022/05/20 09:20:16;;;;;;;0.08;0.08;;;;;;;;;;5003721;28;20560;-91
2022/05/20 09:22:45;;;;;;;0.10;0.10;;;;;;;;;;5002046;28;20053;-87
2022/05/20 09:25:11;;;;;;;0.03;0.03;;;;;;;;;;5012945;28;20096;-88
2022/05/20 09:27:37;;;;;;;0.10;0.10;;;;;;;;;;5013146;28;20117;-89
2022/05/20 09:30:06;;;;;;;0.10;0.10;;;;;;;;;;5000858;28;20030;-84
2022/05/20 09:32:47;;;;;;;0.10;0.10;;;;;;;;;;5011422;28;20029;-85
2022/05/20 09:35:13;;;;;;;0.10;0.10;;;;;;;;;;5011000;28;20030;-89
2022/05/20 09:37:39;;;;;;;0.10;0.10;;;;;;;;;;5014203;28;20388;-89
2022/05/20 09:40:18;;;;;;;0.10;0.10;;;;;;;;;;5014210;28;20034;-87
2022/05/20 09:42:59;;;;;;;0.10;0.10;;;;;;;;;;5013077;28;20100;-86
2022/05/20 09:45:25;;;;;;;0.10;0.10;;;;;;;;;;5012848;28;20041;-87
2022/05/20 09:47:54;;;;;;;0.00;0.00;;;;;;;;;;5015132;28;20076;-84
2022/05/20 09:50:20;;;;;;;0.08;0.08;;;;;;;;;;5013564;28;20120;-88
2022/05/20 09:52:58;;;;;;;0.10;0.10;;;;;;;;;;5014945;28;20060;-86
2022/05/20 09:55:24;;;;;;;0.10;0.10;;;;;;;;;;5014891;28;20100;-87
2022/05/20 09:57:50;;;;;;;0.10;0.10;;;;;;;;;;5014830;28;20473;-87
2022/05/20 10:00:32;;;;;;;0.10;0.10;;;;;;;;;;5013209;28;20037;-87
2022/05/20 10:03:02;;;;;;;0.10;0.10;;;;;;;;;;5014415;28;20044;-86
2022/05/20 10:05:28;;;;;;;0.10;0.10;;;;;;;;;;5013077;28;20026;-86
2022/05/20 10:08:07;;;;;;;0.10;0.10;;;;;;;;;;5013506;28;20030;-86
2022/05/20 10:10:43;;;;;;;0.10;0.10;;;;;;;;;;5012822;28;20075;-87
2022/05/20 10:15:13;;;;;;;;;;;;;;;;;;5131631;27;20108;-86
2022/05/20 10:17:39;;;;;;;;;;;;;;;;;;5112639;28;19914;-82
2022/05/20 10:20:14;;;;;;;0.10;0.10;;;;;;;;;;5131141;28;20445;-89
2022/05/20 10:22:43;;;;;;;0.10;0.10;;;;;;;;;;5130373;28;20081;-89
2022/05/20 10:25:12;;;;;;;0.10;0.10;;;;;;;;;;5129483;28;20028;-87
2022/05/20 10:27:50;;;;;;;0.10;0.10;;;;;;;;;;5127209;28;20028;-88
2022/05/20 10:33:07;;;;;;;0.10;0.10;;;;;;;;;;5126747;28;20031;-90
2022/05/20 10:35:52;;;;;;;0.10;0.10;;;;;;;;;;5111237;28;20019;-87
2022/05/20 10:38:21;;;;;;;0.10;0.10;;;;;;;;;;5110348;28;20033;-90
2022/05/20 10:40:53;;;;;;;0.10;0.10;;;;;;;;;;5126590;28;20023;-87
2022/05/20 10:43:19;;;;;;;0.10;0.10;;;;;;;;;;5110815;28;20015;-85
2022/05/20 10:48:50;;;;;;;0.10;0.10;;;;;;;;;;5112937;28;20115;-84
2022/05/20 10:51:34;;;;;;;0.10;0.10;;;;;;;;;;5127057;28;20093;-80
2022/05/20 10:54:15;;;;;;;0.10;0.10;;;;;;;;;;5128874;28;20047;-82
2022/05/20 10:56:41;;;;;;;0.10;0.10;;;;;;;;;;5129434;28;20023;-83
2022/05/20 10:59:26;;;;;;;0.10;0.10;;;;;;;;;;5109735;28;20083;-82
2022/05/20 11:02:00;;;;;;;0.10;0.10;;;;;;;;;;5127747;28;20102;-83
2022/05/20 11:04:44;;;;;;;0.00;0.00;;;;;;;;;;5128011;28;20055;-83
2022/05/20 11:07:29;;;;;;;0.10;0.10;;;;;;;;;;5111168;28;20019;-83
2022/05/20 11:09:58;;;;;;;0.00;0.00;;;;;;;;;;5107034;28;20467;-81
2022/05/20 11:12:39;;;;;;;0.10;0.10;;;;;;;;;;5109388;28;20020;-82
2022/05/20 11:15:21;;;;;;;0.10;0.10;;;;;;;;;;5125248;27;20051;-82
2022/05/20 11:18:06;;;;;;;0.00;0.00;;;;;;;;;;5111499;28;20387;-82
2022/05/20 11:20:38;;;;;;;0.10;0.10;;;;;;;;;;5145273;27;20478;-85
2022/05/20 11:23:04;;;;;;;0.10;0.10;;;;;;;;;;5109913;28;20027;-90
2022/05/20 11:25:33;;;;;;;0.10;0.10;;;;;;;;;;5101602;28;20102;-92
2022/05/20 11:28:14;;;;;;;0.10;0.10;;;;;;;;;;5097661;28;20028;-83
2022/05/20 11:30:51;;;;;;;0.00;0.00;;;;;;;;;;5113872;27;20387;-85
2022/05/20 11:33:29;;;;;;;0.00;0.00;;;;;;;;;;5112800;27;20096;-83
2022/05/20 11:35:59;;;;;;;0.10;0.10;;;;;;;;;;5096925;28;20036;-83
2022/05/20 11:38:25;;;;;;;0.10;0.10;;;;;;;;;;5117359;27;20026;-82
2022/05/20 11:41:02;;;;;;;0.10;0.10;;;;;;;;;;5103532;27;20027;-82
2022/05/20 11:44:00;;;;;;;0.10;0.10;;;;;;;;;;5135081;27;20015;-83
2022/05/20 11:46:44;;;;;;;0.10;0.10;;;;;;;;;;5082192;28;20046;-82
2022/05/20 11:49:10;;;;;;;0.00;0.00;;;;;;;;;;5103736;27;20023;-81
2022/05/20 11:51:37;;;;;;;0.05;0.05;;;;;;;;;;5123008;27;20131;-81
2022/05/20 11:54:14;;;;;;;0.10;0.10;;;;;;;;;;5114086;28;20030;-83
2022/05/20 11:56:43;;;;;;;0.10;0.10;;;;;;;;;;5131130;27;20019;-83
2022/05/20 11:59:16;;;;;;;0.10;0.10;;;;;;;;;;5103284;27;20587;-84
2022/05/20 12:01:43;;;;;;;0.10;0.10;;;;;;;;;;5117151;27;20023;-85
2022/05/20 12:04:11;;;;;;;0.10;0.10;;;;;;;;;;5135164;27;20515;-89
2022/05/20 12:07:00;;;;;;;0.10;0.10;;;;;;;;;;5096775;28;20482;-85
2022/05/20 12:09:26;;;;;;;0.10;0.10;;;;;;;;;;5110926;27;20113;-82
2022/05/20 12:12:07;;;;;;;0.10;0.10;;;;;;;;;;5102316;28;20123;-83
2022/05/20 12:14:53;;;;;;;0.00;0.00;;;;;;;;;;5129931;27;20122;-83
2022/05/20 12:17:19;;;;;;;;;;;;;;;;;;5114638;28;20390;-85
2022/05/20 12:25:33;;;;;;;0.10;0.10;;;;;;;;;;5125947;27;20489;-83
2022/05/20 12:28:09;;;;;;;0.10;0.10;;;;;;;;;;5129370;27;20032;-92
2022/05/20 12:30:58;;;;;;;0.10;0.10;;;;;;;;;;5123130;27;20023;-85
2022/05/20 12:33:26;;;;;;;0.10;0.10;;;;;;;;;;5051913;28;20487;-80
2022/05/20 12:36:11;;;;;;;0.10;0.10;;;;;;;;;;5096497;28;20024;-87
2022/05/20 12:38:37;;;;;;;0.10;0.10;;;;;;;;;;5113471;28;20073;-87
2022/05/20 12:41:13;;;;;;;0.10;0.10;;;;;;;;;;5114528;28;20325;-87
2022/05/20 12:43:45;;;;;;;18.88;17.70;;;;;;;;;;5096317;28;20487;-86
2022/05/20 12:46:14;;;;;;;0.10;0.10;;;;;;;;;;5095962;28;20474;-86
2022/05/20 12:48:40;;;;;;;0.10;0.10;;;;;;;;;;5134318;27;20026;-85
2022/05/20 12:51:08;;;;;;;0.10;0.10;;;;;;;;;;5116131;27;20106;-91
2022/05/20 12:53:35;;;;;;;0.10;0.10;;;;;;;;;;5116279;27;20033;-88
2022/05/20 12:56:01;;;;;;;0.10;0.10;;;;;;;;;;5119643;27;20482;-90
2022/05/20 12:58:29;;;;;;;0.10;0.10;;;;;;;;;;5114169;28;20023;-92
2022/05/20 13:00:56;;;;;;;0.10;0.10;;;;;;;;;;5114338;28;20050;-87
2022/05/20 13:03:25;;;;;;;0.10;0.10;;;;;;;;;;5123685;27;20509;-88
2022/05/20 13:05:51;;;;;;;0.10;0.10;;;;;;;;;;5116812;27;20021;-88
2022/05/20 13:08:20;;;;;;;0.17;0.17;;;;;;;;;;5114788;27;20114;-83
2022/05/20 13:10:46;;;;;;;0.10;0.10;;;;;;;;;;5094812;28;20026;-85
2022/05/20 13:13:13;;;;;;;0.10;0.10;;;;;;;;;;5094888;28;20122;-83
2022/05/20 13:15:41;;;;;;;0.10;0.10;;;;;;;;;;5113445;28;20023;-85
2022/05/20 13:18:19;;;;;;;0.10;0.10;;;;;;;;;;5094983;28;20027;-83
2022/05/20 13:20:45;;;;;;;0.10;0.10;;;;;;;;;;5116790;27;20023;-84
2022/05/20 13:23:17;;;;;;;0.10;0.10;;;;;;;;;;5125553;27;20031;-84
2022/05/20 13:25:44;;;;;;;0.10;0.10;;;;;;;;;;5125322;27;20513;-85
2022/05/20 13:28:10;;;;;;;0.10;0.10;;;;;;;;;;5133579;27;20471;-84
2022/05/20 13:30:36;;;;;;;0.10;0.10;;;;;;;;;;5130098;27;20103;-82
2022/05/20 13:33:07;;;;;;;0.10;0.10;;;;;;;;;;5100364;27;20512;-83
2022/05/20 13:35:59;;;;;;;0.08;0.08;;;;;;;;;;5132930;27;20091;-82
2022/05/20 13:38:27;;;;;;;0.10;0.10;;;;;;;;;;5111864;27;20047;-81
2022/05/20 13:40:54;;;;;;;0.10;0.10;;;;;;;;;;5132980;27;20062;-77
2022/05/20 13:43:22;;;;;;;0.10;0.10;;;;;;;;;;5105399;28;20585;-83
2022/05/20 13:51:26;;;;;;;0.10;0.10;;;;;;;;;;5113215;28;20100;-86
2022/05/20 13:53:53;;;;;;;0.10;0.10;;;;;;;;;;5094637;28;20039;-85
2022/05/20 13:56:19;;;;;;;0.10;0.10;;;;;;;;;;5113004;28;20024;-88
2022/05/20 13:58:45;;;;;;;0.10;0.10;;;;;;;;;;5112396;28;20165;-83
2022/05/20 14:01:13;;;;;;;0.10;0.10;;;;;;;;;;5094712;28;20467;-85
2022/05/20 14:03:41;;;;;;;0.10;0.10;;;;;;;;;;5105565;27;20020;-85
2022/05/20 14:06:18;;;;;;;0.10;0.10;;;;;;;;;;5132896;27;20539;-85
2022/05/20 14:08:49;;;;;;;0.10;0.10;;;;;;;;;;5091915;28;20442;-84
2022/05/20 14:11:16;;;;;;;0.10;0.10;;;;;;;;;;5106797;28;20053;-83
2022/05/20 14:13:44;;;;;;;0.10;0.10;;;;;;;;;;5111829;28;20035;-83
2022/05/20 14:16:14;;;;;;;0.10;0.10;;;;;;;;;;5127978;28;20123;-82
2022/05/20 14:18:47;;;;;;;0.10;0.10;;;;;;;;;;5097110;28;20068;-83
2022/05/20 14:21:16;;;;;;;0.10;0.10;;;;;;;;;;5111330;28;20027;-82
2022/05/20 14:23:46;;;;;;;0.10;0.10;;;;;;;;;;5132323;28;20075;-84
2022/05/20 14:26:18;;;;;;;0.10;0.10;;;;;;;;;;5114208;28;20023;-81
2022/05/20 14:29:00;;;;;;;0.10;0.10;;;;;;;;;;5099804;28;20434;-81
2022/05/20 14:31:36;;;;;;;0.10;0.10;;;;;;;;;;5122558;28;20035;-83
2022/05/20 14:34:07;;;;;;;0.10;0.10;;;;;;;;;;5126817;28;20035;-83
2022/05/20 14:36:34;;;;;;;0.10;0.10;;;;;;;;;;5114096;28;20502;-82
2022/05/20 14:39:00;;;;;;;0.10;0.10;;;;;;;;;;5125873;28;20047;-83
2022/05/20 14:41:29;;;;;;;0.10;0.10;;;;;;;;;;5121823;28;20051;-83
2022/05/20 14:43:55;;;;;;;0.10;0.10;;;;;;;;;;5118169;28;20031;-80
2022/05/20 14:49:11;;;;;;;0.10;0.10;;;;;;;;;;5111838;28;20054;-82
2022/05/20 14:51:37;;;;;;;0.10;0.10;;;;;;;;;;5111359;28;20028;-82
2022/05/20 14:54:05;;;;;;;0.10;0.10;;;;;;;;;;5126397;28;20039;-81
2022/05/20 14:56:31;;;;;;;0.10;0.10;;;;;;;;;;5127364;28;20043;-80
2022/05/20 14:59:00;;;;;;;0.10;0.10;;;;;;;;;;5099146;28;20061;-82
2022/05/20 15:01:30;;;;;;;0.10;0.10;;;;;;;;;;5125013;27;20023;-78
2022/05/20 15:03:56;;;;;;;0.10;0.10;;;;;;;;;;5115543;28;20034;-84
2022/05/20 15:06:22;;;;;;;0.10;0.10;;;;;;;;;;5115976;28;20019;-84
2022/05/20 15:08:48;;;;;;;0.00;0.00;;;;;;;;;;5116159;28;20157;-85
2022/05/20 15:11:20;;;;;;;0.10;0.10;;;;;;;;;;5115557;28;20172;-84
2022/05/20 15:13:46;;;;;;;0.10;0.10;;;;;;;;;;5095471;28;20131;-81
2022/05/20 15:16:12;;;;;;;0.10;0.10;;;;;;;;;;5116656;27;20088;-83
2022/05/20 15:18:38;;;;;;;0.10;0.10;;;;;;;;;;5095285;28;20023;-83
2022/05/20 15:21:07;;;;;;;0.10;0.10;;;;;;;;;;5096204;28;20024;-81
2022/05/20 15:23:38;;;;;;;0.10;0.10;;;;;;;;;;5107423;27;20015;-84
2022/05/20 15:26:06;;;;;;;0.10;0.10;;;;;;;;;;5119216;27;20161;-83
2022/05/20 15:28:48;;;;;;;0.10;0.10;;;;;;;;;;5117723;27;20105;-83
2022/05/20 15:36:45;;;;;;;0.10;0.10;;;;;;;;;;5113722;28;20421;-84
2022/05/20 15:39:13;;;;;;;0.10;0.10;;;;;;;;;;5113064;28;20054;-82
2022/05/20 15:41:40;;;;;;;0.10;0.10;;;;;;;;;;5096392;28;20657;-82
2022/05/20 15:44:06;;;;;;;0.05;0.05;;;;;;;;;;5114260;28;20460;-83
2022/05/20 15:46:32;;;;;;;0.10;0.10;;;;;;;;;;5134301;27;20034;-85
2022/05/20 15:48:58;;;;;;;0.10;0.10;;;;;;;;;;5129401;27;20020;-85
2022/05/20 15:51:25;;;;;;;0.03;0.03;;;;;;;;;;5105385;27;20402;-75